Time;durP1;ratioP1;P1;durP2;ratioP2;P2;SDS_P1;SDS_P2;PMS_P1;PMS_P2;Temp;Humidity;BMP_temperature;BMP_pressure;BME280_temperature;BME280_humidity;BME280_pressure;Samples;Min_cycle;Max_cycle;Signal;HPM_P1;HPM_P2
2022/04/11 00:01:23;;;;;;;;;;;;;;;;;;5057068;28;19913;-28
2022/04/11 00:03:51;;;;;;;;;;;;;;;;;;5038612;28;19924;-28
2022/04/11 00:06:19;;;;;;;;;;;;;;;;;;5056934;28;19955;-30
2022/04/11 00:08:46;;;;;;;;;;;;;;;;;;5056866;28;19912;-29
2022/04/11 00:11:14;;;;;;;;;;;;;;;;;;5039247;28;19913;-32
2022/04/11 00:13:40;;;;;;;;;;;;;;;;;;5057055;28;19931;-30
2022/04/11 00:16:07;;;;;;;;;;;;;;;;;;5056644;28;19913;-24
2022/04/11 00:18:36;;;;;;;;;;;;;;;;;;5056556;28;19913;-24
2022/04/11 00:21:04;;;;;;;;;;;;;;;;;;5056652;28;19909;-25
2022/04/11 00:23:32;;;;;;;;;;;;;;;;;;5056686;28;19919;-27
2022/04/11 00:25:59;;;;;;;;;;;;;;;;;;5056519;28;19912;-26
2022/04/11 00:28:27;;;;;;;;;;;;;;;;;;5056211;28;20296;-25
2022/04/11 00:30:54;;;;;;;;;;;;;;;;;;5056670;28;19914;-29
2022/04/11 00:33:21;;;;;;;;;;;;;;;;;;5056325;28;19913;-28
2022/04/11 00:35:50;;;;;;;;;;;;;;;;;;5056599;28;19923;-24
2022/04/11 00:38:17;;;;;;;;;;;;;;;;;;5056385;28;19913;-25
2022/04/11 00:40:45;;;;;;;;;;;;;;;;;;5056323;28;19913;-24
2022/04/11 00:43:12;;;;;;;;;;;;;;;;;;5056494;28;19966;-26
2022/04/11 00:45:40;;;;;;;;;;;;;;;;;;5056219;28;20363;-28
2022/04/11 00:48:08;;;;;;;;;;;;;;;;;;5056322;28;19924;-29
2022/04/11 00:50:35;;;;;;;;;;;;;;;;;;5056064;28;20040;-25
2022/04/11 00:53:03;;;;;;;;;;;;;;;;;;5055750;28;20307;-26
2022/04/11 00:55:29;;;;;;;;;;;;;;;;;;5056178;28;19967;-32
2022/04/11 00:57:56;;;;;;;;;;;;;;;;;;5055803;28;19932;-27
2022/04/11 01:00:23;;;;;;;;;;;;;;;;;;5055898;28;19908;-26
2022/04/11 01:02:50;;;;;;;;;;;;;;;;;;5056128;28;19920;-27
2022/04/11 01:05:18;;;;;;;;;;;;;;;;;;5055763;28;19996;-25
2022/04/11 01:07:46;;;;;;;;;;;;;;;;;;5055648;28;19979;-25
2022/04/11 01:10:13;;;;;;;;;;;;;;;;;;5055758;28;19912;-25
2022/04/11 01:12:40;;;;;;;;;;;;;;;;;;5055626;28;19913;-27
2022/04/11 01:15:08;;;;;;;;;;;;;;;;;;5054522;28;20039;-29
2022/04/11 01:17:36;;;;;;;;;;;;;;;;;;5055764;28;19948;-29
2022/04/11 01:20:03;;;;;;;;;;;;;;;;;;5055515;28;19924;-26
2022/04/11 01:22:30;;;;;;;;;;;;;;;;;;5055413;28;19924;-27
2022/04/11 01:24:58;;;;;;;;;;;;;;;;;;5055685;28;19908;-28
2022/04/11 01:27:26;;;;;;;;;;;;;;;;;;5055355;28;19917;-27
2022/04/11 01:29:53;;;;;;;;;;;;;;;;;;5055231;28;19921;-25
2022/04/11 01:32:20;;;;;;;;;;;;;;;;;;5055329;28;19909;-25
2022/04/11 01:34:47;;;;;;;;;;;;;;;;;;5037740;28;19952;-27
2022/04/11 01:37:14;;;;;;;;;;;;;;;;;;5055105;28;20361;-26
2022/04/11 01:39:42;;;;;;;;;;;;;;;;;;5055185;28;19977;-29
2022/04/11 01:42:09;;;;;;;;;;;;;;;;;;5055094;28;19921;-26
2022/04/11 01:44:36;;;;;;;;;;;;;;;;;;5055471;28;20383;-35
2022/04/11 01:47:04;;;;;;;;;;;;;;;;;;5055283;28;19909;-33
2022/04/11 01:49:31;;;;;;;;;;;;;;;;;;5054994;28;19965;-24
2022/04/11 01:51:58;;;;;;;;;;;;;;;;;;5037351;28;20423;-26
2022/04/11 01:54:26;;;;;;;;;;;;;;;;;;5055179;28;20347;-28
2022/04/11 01:56:53;;;;;;;;;;;;;;;;;;5054704;28;20267;-28
2022/04/11 01:59:22;;;;;;;;;;;;;;;;;;5054783;28;19909;-31
2022/04/11 02:01:50;;;;;;;;;;;;;;;;;;5054740;28;19909;-30
2022/04/11 02:04:17;;;;;;;;;;;;;;;;;;5054800;28;19908;-28
2022/04/11 02:06:45;;;;;;;;;;;;;;;;;;5054991;28;19944;-28
2022/04/11 02:09:13;;;;;;;;;;;;;;;;;;5054722;28;19999;-25
2022/04/11 02:11:40;;;;;;;;;;;;;;;;;;5055043;28;19988;-29
2022/04/11 02:14:08;;;;;;;;;;;;;;;;;;5054781;28;19913;-26
2022/04/11 02:16:35;;;;;;;;;;;;;;;;;;5054638;28;20299;-26
2022/04/11 02:19:02;;;;;;;;;;;;;;;;;;5054673;28;19920;-26
2022/04/11 02:21:29;;;;;;;;;;;;;;;;;;5054566;28;19999;-29
2022/04/11 02:23:55;;;;;;;;;;;;;;;;;;5054843;28;19935;-28
2022/04/11 02:26:22;;;;;;;;;;;;;;;;;;5054195;28;19919;-24
2022/04/11 02:28:49;;;;;;;;;;;;;;;;;;5054377;28;19916;-28
2022/04/11 02:31:17;;;;;;;;;;;;;;;;;;5055024;28;19920;-25
2022/04/11 02:33:44;;;;;;;;;;;;;;;;;;5054314;28;20271;-27
2022/04/11 02:36:12;;;;;;;;;;;;;;;;;;5054460;28;19978;-29
2022/04/11 02:38:39;;;;;;;;;;;;;;;;;;5054537;28;20268;-33
2022/04/11 02:41:05;;;;;;;;;;;;;;;;;;5054673;28;20299;-28
2022/04/11 02:43:34;;;;;;;;;;;;;;;;;;5036803;28;19940;-27
2022/04/11 02:46:02;;;;;;;;;;;;;;;;;;5054421;28;19948;-24
2022/04/11 02:48:28;;;;;;;;;;;;;;;;;;5036516;28;20340;-27
2022/04/11 02:50:56;;;;;;;;;;;;;;;;;;5054578;28;19958;-25
2022/04/11 02:53:23;;;;;;;;;;;;;;;;;;5054298;28;20259;-26
2022/04/11 02:55:50;;;;;;;;;;;;;;;;;;5054252;28;19913;-26
2022/04/11 02:58:17;;;;;;;;;;;;;;;;;;5054411;28;20263;-29
2022/04/11 03:00:44;;;;;;;;;;;;;;;;;;5036709;28;20366;-24
2022/04/11 03:03:12;;;;;;;;;;;;;;;;;;5054337;28;20018;-25
2022/04/11 03:05:39;;;;;;;;;;;;;;;;;;5054553;28;19948;-26
2022/04/11 03:08:05;;;;;;;;;;;;;;;;;;5054212;28;19913;-25
2022/04/11 03:10:34;;;;;;;;;;;;;;;;;;5054426;28;20377;-28
2022/04/11 03:13:03;;;;;;;;;;;;;;;;;;5054206;28;20237;-27
2022/04/11 03:15:30;;;;;;;;;;;;;;;;;;5054008;28;19916;-30
2022/04/11 03:17:58;;;;;;;;;;;;;;;;;;5036512;28;19913;-30
2022/04/11 03:20:25;;;;;;;;;;;;;;;;;;5054376;28;19917;-30
2022/04/11 03:22:53;;;;;;;;;;;;;;;;;;5054102;28;20229;-28
2022/04/11 03:25:20;;;;;;;;;;;;;;;;;;5054535;28;19909;-25
2022/04/11 03:27:49;;;;;;;;;;;;;;;;;;5054013;28;19917;-34
2022/04/11 03:30:16;;;;;;;;;;;;;;;;;;5054020;28;20007;-28
2022/04/11 03:32:44;;;;;;;;;;;;;;;;;;5054182;28;20027;-25
2022/04/11 03:35:12;;;;;;;;;;;;;;;;;;5053876;28;19924;-31
2022/04/11 03:37:40;;;;;;;;;;;;;;;;;;5054485;28;19923;-26
2022/04/11 03:40:14;;;;;;;;;;;;;;;;;;5057513;28;19913;-28
2022/04/11 03:42:42;;;;;;;;;;;;;;;;;;5057356;28;19913;-28
2022/04/11 03:45:11;;;;;;;;;;;;;;;;;;5057468;28;20316;-30
2022/04/11 03:50:24;;;;;;;;;;;;;;;;;;5057257;28;19969;-26
2022/04/11 03:52:52;;;;;;;;;;;;;;;;;;5057498;28;19913;-29
2022/04/11 03:55:18;;;;;;;;;;;;;;;;;;5057065;28;19932;-28
2022/04/11 03:57:46;;;;;;;;;;;;;;;;;;5056769;28;19912;-26
2022/04/11 04:02:57;;;;;;;;;;;;;;;;;;5466117;22;19944;-20
2022/04/11 04:05:24;;;;;;;;;;;;;;;;;;5019504;28;19913;-21
2022/04/11 04:07:50;;;;;;;;;;;;;;;;;;5037548;28;19986;-24
2022/04/11 04:10:17;;;;;;;;;;;;;;;;;;5036769;28;19913;-22
2022/04/11 04:12:46;;;;;;;;;;;;;;;;;;5036692;28;19917;-20
2022/04/11 04:15:12;;;;;;;;;;;;;;;;;;5036546;28;19917;-21
2022/04/11 04:17:38;;;;;;;;;;;;;;;;;;5036432;28;19913;-21
2022/04/11 04:20:04;;;;;;;;;;;;;;;;;;5036387;28;19920;-26
2022/04/11 04:22:30;;;;;;;;;;;;;;;;;;5036805;28;20201;-20
2022/04/11 04:24:57;;;;;;;;;;;;;;;;;;5036302;28;20381;-20
2022/04/11 04:27:23;;;;;;;;;;;;;;;;;;5036670;28;20335;-19
2022/04/11 04:29:50;;;;;;;;;;;;;;;;;;5035957;28;19932;-19
2022/04/11 04:32:16;;;;;;;;;;;;;;;;;;5036155;28;20271;-21
2022/04/11 04:34:42;;;;;;;;;;;;;;;;;;5036535;28;20300;-21
2022/04/11 04:37:10;;;;;;;;;;;;;;;;;;5036155;28;19917;-19
2022/04/11 04:39:37;;;;;;;;;;;;;;;;;;5035873;28;19920;-18
2022/04/11 04:42:03;;;;;;;;;;;;;;;;;;5036064;28;20259;-18
2022/04/11 04:44:29;;;;;;;;;;;;;;;;;;5018431;28;19913;-21
2022/04/11 04:46:55;;;;;;;;;;;;;;;;;;5018525;28;19948;-19
2022/04/11 04:49:23;;;;;;;;;;;;;;;;;;5035822;28;19948;-21
2022/04/11 04:51:49;;;;;;;;;;;;;;;;;;5036499;28;19919;-20
2022/04/11 04:54:15;;;;;;;;;;;;;;;;;;5035953;28;19995;-22
2022/04/11 04:56:41;;;;;;;;;;;;;;;;;;5035789;28;20061;-21
2022/04/11 04:59:08;;;;;;;;;;;;;;;;;;5036303;28;20004;-20
2022/04/11 05:01:35;;;;;;;;;;;;;;;;;;5035755;28;20321;-20
2022/04/11 05:04:01;;;;;;;;;;;;;;;;;;5035224;28;19925;-20
2022/04/11 05:06:28;;;;;;;;;;;;;;;;;;5035942;28;19940;-22
2022/04/11 05:11:39;;;;;;;;;;;;;;;;;;5035821;28;19988;-22
2022/04/11 05:14:06;;;;;;;;;;;;;;;;;;5035449;28;19921;-21
2022/04/11 05:16:33;;;;;;;;;;;;;;;;;;5034949;28;20346;-21
2022/04/11 05:19:00;;;;;;;;;;;;;;;;;;5035332;28;19924;-21
2022/04/11 05:21:29;;;;;;;;;;;;;;;;;;5035874;28;19913;-22
2022/04/11 05:23:56;;;;;;;;;;;;;;;;;;5035210;28;19992;-22
2022/04/11 05:26:22;;;;;;;;;;;;;;;;;;5034979;28;20351;-21
2022/04/11 05:28:49;;;;;;;;;;;;;;;;;;5035244;28;19913;-20
2022/04/11 05:31:16;;;;;;;;;;;;;;;;;;5034928;28;19924;-21
2022/04/11 05:33:42;;;;;;;;;;;;;;;;;;5035386;28;19913;-22
2022/04/11 05:36:08;;;;;;;;;;;;;;;;;;5034653;28;19921;-21
2022/04/11 05:38:34;;;;;;;;;;;;;;;;;;5034914;28;20000;-21
2022/04/11 05:41:00;;;;;;;;;;;;;;;;;;5035154;28;19913;-20
2022/04/11 05:43:26;;;;;;;;;;;;;;;;;;5035071;28;20028;-23
2022/04/11 05:45:52;;;;;;;;;;;;;;;;;;5034716;28;19913;-20
2022/04/11 05:48:18;;;;;;;;;;;;;;;;;;5034832;28;19925;-29
2022/04/11 05:50:44;;;;;;;;;;;;;;;;;;5017665;28;19965;-22
2022/04/11 05:53:10;;;;;;;;;;;;;;;;;;5034458;28;19932;-22
2022/04/11 05:55:36;;;;;;;;;;;;;;;;;;5034447;28;19943;-22
2022/04/11 05:58:02;;;;;;;;;;;;;;;;;;5017879;28;19932;-20
2022/04/11 06:00:29;;;;;;;;;;;;;;;;;;5034459;28;19932;-20
2022/04/11 06:02:55;;;;;;;;;;;;;;;;;;5016563;28;19983;-20
2022/04/11 06:05:21;;;;;;;;;;;;;;;;;;5034929;28;20340;-22
2022/04/11 06:07:47;;;;;;;;;;;;;;;;;;5034599;28;20280;-22
2022/04/11 06:10:13;;;;;;;;;;;;;;;;;;5034124;28;19947;-21
2022/04/11 06:12:39;;;;;;;;;;;;;;;;;;5034172;28;19967;-21
2022/04/11 06:15:05;;;;;;;;;;;;;;;;;;5034439;28;20004;-21
2022/04/11 06:17:31;;;;;;;;;;;;;;;;;;5034091;28;19917;-20
2022/04/11 06:19:57;;;;;;;;;;;;;;;;;;5034050;28;19913;-23
2022/04/11 06:22:23;;;;;;;;;;;;;;;;;;5016300;28;20351;-22
2022/04/11 06:24:49;;;;;;;;;;;;;;;;;;5033822;28;20015;-20
2022/04/11 06:27:15;;;;;;;;;;;;;;;;;;5016488;28;19996;-20
2022/04/11 06:29:42;;;;;;;;;;;;;;;;;;5034007;28;19971;-21
2022/04/11 06:32:08;;;;;;;;;;;;;;;;;;5034217;28;19918;-20
2022/04/11 06:34:34;;;;;;;;;;;;;;;;;;5034198;28;19990;-21
2022/04/11 06:37:00;;;;;;;;;;;;;;;;;;5034120;28;19917;-20
2022/04/11 06:39:26;;;;;;;;;;;;;;;;;;5034215;28;19998;-21
2022/04/11 06:41:52;;;;;;;;;;;;;;;;;;5033958;28;19910;-21
2022/04/11 06:44:18;;;;;;;;;;;;;;;;;;5033821;28;19913;-21
2022/04/11 06:46:44;;;;;;;;;;;;;;;;;;5033893;28;19909;-22
2022/04/11 06:49:11;;;;;;;;;;;;;;;;;;5016697;28;19963;-21
2022/04/11 06:51:37;;;;;;;;;;;;;;;;;;5034158;28;19913;-22
2022/04/11 06:54:04;;;;;;;;;;;;;;;;;;5034379;28;19971;-23
2022/04/11 06:56:30;;;;;;;;;;;;;;;;;;5033835;28;19967;-22
2022/04/11 06:58:56;;;;;;;;;;;;;;;;;;5016398;28;20003;-21
2022/04/11 07:01:22;;;;;;;;;;;;;;;;;;5033723;28;19920;-20
2022/04/11 07:03:48;;;;;;;;;;;;;;;;;;5033618;28;19993;-22
2022/04/11 07:06:14;;;;;;;;;;;;;;;;;;5034089;28;20055;-21
2022/04/11 07:08:41;;;;;;;;;;;;;;;;;;5016615;28;20415;-21
2022/04/11 07:11:07;;;;;;;;;;;;;;;;;;5017318;28;19936;-21
2022/04/11 07:13:34;;;;;;;;;;;;;;;;;;5037287;28;20272;-20
2022/04/11 07:16:01;;;;;;;;;;;;;;;;;;5037493;28;19917;-22
2022/04/11 07:18:27;;;;;;;;;;;;;;;;;;5037773;28;19919;-21
2022/04/11 07:20:53;;;;;;;;;;;;;;;;;;5037703;28;19975;-20
2022/04/11 07:23:19;;;;;;;;;;;;;;;;;;5037705;28;19913;-21
2022/04/11 07:25:46;;;;;;;;;;;;;;;;;;5037569;28;19919;-21
2022/04/11 07:28:13;;;;;;;;;;;;;;;;;;5037636;28;20367;-20
2022/04/11 07:30:39;;;;;;;;;;;;;;;;;;5037391;28;19924;-23
2022/04/11 07:33:06;;;;;;;;;;;;;;;;;;5037697;28;20240;-21
2022/04/11 07:35:33;;;;;;;;;;;;;;;;;;5037300;28;19917;-20
2022/04/11 07:38:01;;;;;;;;;;;;;;;;;;5037348;28;20354;-21
2022/04/11 07:40:27;;;;;;;;;;;;;;;;;;5037778;28;20067;-22
2022/04/11 07:42:53;;;;;;;;;;;;;;;;;;5037151;28;20310;-21
2022/04/11 07:45:20;;;;;;;;;;;;;;;;;;5037282;28;19913;-20
2022/04/11 07:47:46;;;;;;;;;;;;;;;;;;5037371;28;19956;-21
2022/04/11 07:50:12;;;;;;;;;;;;;;;;;;5019496;28;20299;-20
2022/04/11 07:52:40;;;;;;;;;;;;;;;;;;5037018;28;19963;-21
2022/04/11 07:55:06;;;;;;;;;;;;;;;;;;5037504;28;19909;-21
2022/04/11 07:57:32;;;;;;;;;;;;;;;;;;5036919;28;20220;-21
2022/04/11 07:59:58;;;;;;;;;;;;;;;;;;5036907;28;19917;-22
2022/04/11 08:02:25;;;;;;;;;;;;;;;;;;5019349;28;19958;-21
2022/04/11 08:04:51;;;;;;;;;;;;;;;;;;5037504;28;19932;-21
2022/04/11 08:07:17;;;;;;;;;;;;;;;;;;5019620;28;19909;-21
2022/04/11 08:09:43;;;;;;;;;;;;;;;;;;5036949;28;19924;-22
2022/04/11 08:12:11;;;;;;;;;;;;;;;;;;5036735;28;20352;-22
2022/04/11 08:14:37;;;;;;;;;;;;;;;;;;5036843;28;19935;-22
2022/04/11 08:17:04;;;;;;;;;;;;;;;;;;5036608;28;19928;-22
2022/04/11 08:19:32;;;;;;;;;;;;;;;;;;5018968;28;19913;-20
2022/04/11 08:21:58;;;;;;;;;;;;;;;;;;5036427;28;20300;-19
2022/04/11 08:24:26;;;;;;;;;;;;;;;;;;5035986;28;19910;-20
2022/04/11 08:26:54;;;;;;;;;;;;;;;;;;5018973;28;20015;-19
2022/04/11 08:29:20;;;;;;;;;;;;;;;;;;5037119;28;19909;-22
2022/04/11 08:31:46;;;;;;;;;;;;;;;;;;5018780;28;20233;-20
2022/04/11 08:34:12;;;;;;;;;;;;;;;;;;5036413;28;19909;-21
2022/04/11 08:36:38;;;;;;;;;;;;;;;;;;5036245;28;19928;-21
2022/04/11 08:39:06;;;;;;;;;;;;;;;;;;5036738;28;20015;-19
2022/04/11 08:41:36;;;;;;;;;;;;;;;;;;5035827;28;19913;-23
2022/04/11 08:44:02;;;;;;;;;;;;;;;;;;5035683;28;19910;-20
2022/04/11 08:46:28;;;;;;;;;;;;;;;;;;5035689;28;19932;-20
2022/04/11 08:48:54;;;;;;;;;;;;;;;;;;5036072;28;19913;-20
2022/04/11 08:51:22;;;;;;;;;;;;;;;;;;5035520;28;19913;-21
2022/04/11 08:53:48;;;;;;;;;;;;;;;;;;5035711;28;20243;-20
2022/04/11 08:56:14;;;;;;;;;;;;;;;;;;5035661;28;20360;-20
2022/04/11 08:58:41;;;;;;;;;;;;;;;;;;5035570;28;19913;-21
2022/04/11 09:01:07;;;;;;;;;;;;;;;;;;5035372;28;19917;-22
2022/04/11 09:03:34;;;;;;;;;;;;;;;;;;5034971;28;20272;-22
2022/04/11 09:06:02;;;;;;;;;;;;;;;;;;5035487;28;20261;-20
2022/04/11 09:08:28;;;;;;;;;;;;;;;;;;5035123;28;19913;-21
2022/04/11 09:10:55;;;;;;;;;;;;;;;;;;5035491;28;20008;-20
2022/04/11 09:13:23;;;;;;;;;;;;;;;;;;5034888;28;19924;-21
2022/04/11 09:15:49;;;;;;;;;;;;;;;;;;5017379;28;20016;-19
2022/04/11 09:18:15;;;;;;;;;;;;;;;;;;5035401;28;20320;-20
2022/04/11 09:20:41;;;;;;;;;;;;;;;;;;5035442;28;20347;-23
2022/04/11 09:23:08;;;;;;;;;;;;;;;;;;5017343;28;19931;-22
2022/04/11 09:25:34;;;;;;;;;;;;;;;;;;5034696;28;20000;-21
2022/04/11 09:28:01;;;;;;;;;;;;;;;;;;5035220;28;19913;-25
2022/04/11 09:30:36;;;;;;;;;;;;;;;;;;5035614;28;19913;-21
2022/04/11 09:33:15;;;;;;;;;;;;;;;;;;5034780;28;19959;-22
2022/04/11 09:35:41;;;;;;;;;;;;;;;;;;5033880;28;19917;-22
2022/04/11 09:38:07;;;;;;;;;;;;;;;;;;5034933;28;19983;-22
2022/04/11 09:40:33;;;;;;;;;;;;;;;;;;5035649;28;20228;-23
2022/04/11 09:42:59;;;;;;;;;;;;;;;;;;5034705;28;19913;-21
2022/04/11 09:45:28;;;;;;;;;;;;;;;;;;5034616;28;20324;-21
2022/04/11 09:47:54;;;;;;;;;;;;;;;;;;5035098;28;19912;-27
2022/04/11 09:50:22;;;;;;;;;;;;;;;;;;5034894;28;19921;-20
2022/04/11 09:52:48;;;;;;;;;;;;;;;;;;5034701;28;19944;-21
2022/04/11 09:55:14;;;;;;;;;;;;;;;;;;5034856;28;19916;-21
2022/04/11 09:57:42;;;;;;;;;;;;;;;;;;5034822;28;19921;-20
2022/04/11 10:00:08;;;;;;;;;;;;;;;;;;5034943;28;19915;-22
2022/04/11 10:02:36;;;;;;;;;;;;;;;;;;5034645;28;19917;-20
2022/04/11 10:05:05;;;;;;;;;;;;;;;;;;5035273;28;19995;-21
2022/04/11 10:07:33;;;;;;;;;;;;;;;;;;5034432;28;19917;-22
2022/04/11 10:12:53;;;;;;;;;;;;;;;;;;5034824;28;20315;-21
2022/04/11 10:15:19;;;;;;;;;;;;;;;;;;5034356;28;20004;-21
2022/04/11 10:20:30;;;;;;;;;;;;;;;;;;5035067;28;19920;-20
2022/04/11 10:22:57;;;;;;;;;;;;;;;;;;5034377;28;19913;-21
2022/04/11 10:25:25;;;;;;;;;;;;;;;;;;5034287;28;20358;-20
2022/04/11 10:27:53;;;;;;;;;;;;;;;;;;5034648;28;19967;-20
2022/04/11 10:30:19;;;;;;;;;;;;;;;;;;5034014;28;19923;-20
2022/04/11 10:35:38;;;;;;;;;;;;;;;;;;5034365;28;19991;-20
2022/04/11 10:38:04;;;;;;;;;;;;;;;;;;5033852;28;20007;-20
2022/04/11 10:40:32;;;;;;;;;;;;;;;;;;5016598;28;19913;-20
2022/04/11 10:45:45;;;;;;;;;;;;;;;;;;5039257;28;19928;-20
2022/04/11 10:48:12;;;;;;;;;;;;;;;;;;5041396;28;19917;-20
2022/04/11 10:50:39;;;;;;;;;;;;;;;;;;5040061;28;19924;-21
2022/04/11 10:53:08;;;;;;;;;;;;;;;;;;5038460;28;19913;-28
2022/04/11 10:55:35;;;;;;;;;;;;;;;;;;5037740;28;19917;-23
2022/04/11 10:58:03;;;;;;;;;;;;;;;;;;5037500;28;20359;-23
2022/04/11 11:00:29;;;;;;;;;;;;;;;;;;5037405;28;19917;-21
2022/04/11 11:02:57;;;;;;;;;;;;;;;;;;5037178;28;19957;-21
2022/04/11 11:05:24;;;;;;;;;;;;;;;;;;5037374;28;19909;-23
2022/04/11 11:07:50;;;;;;;;;;;;;;;;;;5037439;28;19952;-22
2022/04/11 11:10:19;;;;;;;;;;;;;;;;;;5037824;28;20236;-21
2022/04/11 11:12:45;;;;;;;;;;;;;;;;;;5037221;28;19927;-20
2022/04/11 11:15:11;;;;;;;;;;;;;;;;;;5037331;28;19913;-21
2022/04/11 11:17:38;;;;;;;;;;;;;;;;;;5036965;28;19925;-21
2022/04/11 11:20:05;;;;;;;;;;;;;;;;;;5037215;28;19920;-22
2022/04/11 11:22:31;;;;;;;;;;;;;;;;;;5019671;28;19925;-23
2022/04/11 11:24:57;;;;;;;;;;;;;;;;;;5037427;28;19966;-21
2022/04/11 11:27:25;;;;;;;;;;;;;;;;;;5038037;28;19985;-21
2022/04/11 11:29:52;;;;;;;;;;;;;;;;;;5037657;28;20236;-21
2022/04/11 11:32:21;;;;;;;;;;;;;;;;;;5036936;28;20028;-21
2022/04/11 11:34:47;;;;;;;;;;;;;;;;;;5037399;28;20019;-22
2022/04/11 11:37:13;;;;;;;;;;;;;;;;;;5037981;28;19932;-22
2022/04/11 11:39:40;;;;;;;;;;;;;;;;;;5037587;28;20358;-20
2022/04/11 11:42:06;;;;;;;;;;;;;;;;;;5037032;28;19913;-21
2022/04/11 11:44:35;;;;;;;;;;;;;;;;;;5037478;28;19956;-21
2022/04/11 11:47:03;;;;;;;;;;;;;;;;;;5020473;28;20297;-21
2022/04/11 11:49:29;;;;;;;;;;;;;;;;;;5037180;28;19913;-21
2022/04/11 11:51:56;;;;;;;;;;;;;;;;;;5019820;28;19921;-22
2022/04/11 11:54:23;;;;;;;;;;;;;;;;;;5037249;28;19924;-21
2022/04/11 11:56:49;;;;;;;;;;;;;;;;;;5037569;28;20304;-21
2022/04/11 11:59:16;;;;;;;;;;;;;;;;;;5035963;28;19909;-21
2022/04/11 12:04:18;;;;;;;;;;;;;;;;;;5019467;28;19948;-21
2022/04/11 12:04:28;;;;;;;;;;;;;;;;;;5036783;28;20003;-21
2022/04/11 12:06:57;;;;;;;;;;;;;;;;;;5019448;28;20348;-21
2022/04/11 12:09:23;;;;;;;;;;;;;;;;;;5036929;28;19913;-21
2022/04/11 12:11:50;;;;;;;;;;;;;;;;;;5037173;28;19920;-21
2022/04/11 12:14:17;;;;;;;;;;;;;;;;;;5037073;28;19999;-21
2022/04/11 12:16:43;;;;;;;;;;;;;;;;;;5036679;28;20381;-22
2022/04/11 12:19:11;;;;;;;;;;;;;;;;;;5036615;28;19913;-25
2022/04/11 12:21:37;;;;;;;;;;;;;;;;;;5036864;28;19913;-21
2022/04/11 12:24:04;;;;;;;;;;;;;;;;;;5036384;28;19909;-22
2022/04/11 12:26:32;;;;;;;;;;;;;;;;;;5036551;28;20000;-23
2022/04/11 12:28:58;;;;;;;;;;;;;;;;;;5037024;28;19909;-21
2022/04/11 12:31:24;;;;;;;;;;;;;;;;;;5037066;28;19952;-23
2022/04/11 12:33:50;;;;;;;;;;;;;;;;;;5018795;28;19986;-21
2022/04/11 12:36:17;;;;;;;;;;;;;;;;;;5036227;28;19917;-22
2022/04/11 12:38:43;;;;;;;;;;;;;;;;;;5036355;28;20268;-20
2022/04/11 12:41:09;;;;;;;;;;;;;;;;;;5036747;28;20358;-20
2022/04/11 12:43:35;;;;;;;;;;;;;;;;;;5036244;28;19999;-21
2022/04/11 12:46:01;;;;;;;;;;;;;;;;;;5036418;28;20350;-20
2022/04/11 12:48:28;;;;;;;;;;;;;;;;;;5036109;28;19909;-21
2022/04/11 12:50:54;;;;;;;;;;;;;;;;;;5035998;28;19963;-21
2022/04/11 12:53:20;;;;;;;;;;;;;;;;;;5035953;28;19909;-21
2022/04/11 12:55:47;;;;;;;;;;;;;;;;;;5035550;28;19989;-21
2022/04/11 12:58:14;;;;;;;;;;;;;;;;;;5035779;28;20020;-19
2022/04/11 13:00:42;;;;;;;;;;;;;;;;;;5035778;28;19996;-18
2022/04/11 13:03:08;;;;;;;;;;;;;;;;;;5017764;28;19921;-21
2022/04/11 13:05:36;;;;;;;;;;;;;;;;;;5036481;28;20013;-21
2022/04/11 13:08:06;;;;;;;;;;;;;;;;;;5036023;28;19920;-21
2022/04/11 13:10:32;;;;;;;;;;;;;;;;;;5036333;28;20347;-20
2022/04/11 13:13:00;;;;;;;;;;;;;;;;;;5035745;28;19936;-21
2022/04/11 13:15:27;;;;;;;;;;;;;;;;;;5036143;28;20000;-20
2022/04/11 13:20:37;;;;;;;;;;;;;;;;;;5035401;28;19920;-20
2022/04/11 13:23:03;;;;;;;;;;;;;;;;;;5035799;28;19913;-20
2022/04/11 13:25:29;;;;;;;;;;;;;;;;;;5017989;28;20228;-20
2022/04/11 13:27:55;;;;;;;;;;;;;;;;;;5035344;28;20059;-21
2022/04/11 13:30:21;;;;;;;;;;;;;;;;;;5035444;28;19976;-19
2022/04/11 13:32:51;;;;;;;;;;;;;;;;;;5034566;28;21180;-19
2022/04/11 13:35:17;;;;;;;;;;;;;;;;;;5035235;28;19974;-21
2022/04/11 13:37:43;;;;;;;;;;;;;;;;;;5035679;28;20259;-21
2022/04/11 13:40:09;;;;;;;;;;;;;;;;;;5034977;28;19921;-20
2022/04/11 13:42:35;;;;;;;;;;;;;;;;;;5034909;28;19971;-20
2022/04/11 13:45:02;;;;;;;;;;;;;;;;;;5035608;28;20003;-20
2022/04/11 13:47:28;;;;;;;;;;;;;;;;;;5035045;28;19978;-20
2022/04/11 13:49:54;;;;;;;;;;;;;;;;;;5035084;28;19974;-19
2022/04/11 13:52:21;;;;;;;;;;;;;;;;;;5017485;28;19913;-21
2022/04/11 13:54:47;;;;;;;;;;;;;;;;;;5035532;28;19909;-19
2022/04/11 13:57:13;;;;;;;;;;;;;;;;;;5034715;28;20287;-21
2022/04/11 13:59:40;;;;;;;;;;;;;;;;;;5017234;28;19963;-21
2022/04/11 14:02:07;;;;;;;;;;;;;;;;;;5034629;28;19913;-20
2022/04/11 14:04:33;;;;;;;;;;;;;;;;;;5035148;28;19921;-23
2022/04/11 14:07:00;;;;;;;;;;;;;;;;;;5034793;28;19955;-20
2022/04/11 14:09:26;;;;;;;;;;;;;;;;;;5034862;28;19982;-21
2022/04/11 14:11:52;;;;;;;;;;;;;;;;;;5017110;28;19996;-21
2022/04/11 14:14:18;;;;;;;;;;;;;;;;;;5017355;28;19923;-21
2022/04/11 14:16:44;;;;;;;;;;;;;;;;;;5034678;28;19913;-21
2022/04/11 14:19:10;;;;;;;;;;;;;;;;;;5034904;28;19921;-21
2022/04/11 14:21:37;;;;;;;;;;;;;;;;;;5016805;28;20028;-20
2022/04/11 14:24:04;;;;;;;;;;;;;;;;;;5034750;28;19940;-23
2022/04/11 14:26:30;;;;;;;;;;;;;;;;;;5034328;28;20344;-20
2022/04/11 14:28:56;;;;;;;;;;;;;;;;;;5017020;28;19939;-20
2022/04/11 14:31:23;;;;;;;;;;;;;;;;;;5034489;28;19917;-21
2022/04/11 14:33:49;;;;;;;;;;;;;;;;;;5034664;28;20015;-22
2022/04/11 14:36:15;;;;;;;;;;;;;;;;;;5016976;28;19940;-19
2022/04/11 14:38:42;;;;;;;;;;;;;;;;;;5017130;28;20256;-19
2022/04/11 14:41:08;;;;;;;;;;;;;;;;;;5034495;28;19913;-19
2022/04/11 14:43:36;;;;;;;;;;;;;;;;;;5034377;28;20011;-20
2022/04/11 14:46:02;;;;;;;;;;;;;;;;;;5035066;28;19924;-20
2022/04/11 14:51:20;;;;;;;;;;;;;;;;;;5034423;28;20083;-20
2022/04/11 14:53:48;;;;;;;;;;;;;;;;;;5034265;28;20348;-21
2022/04/11 14:56:15;;;;;;;;;;;;;;;;;;5034154;28;19913;-22
2022/04/11 14:58:42;;;;;;;;;;;;;;;;;;5034117;28;20367;-21
2022/04/11 15:01:09;;;;;;;;;;;;;;;;;;5034113;28;19913;-19
2022/04/11 15:03:36;;;;;;;;;;;;;;;;;;5034088;28;19921;-19
2022/04/11 15:06:02;;;;;;;;;;;;;;;;;;5034220;28;19919;-21
2022/04/11 15:08:28;;;;;;;;;;;;;;;;;;5016594;28;19924;-20
2022/04/11 15:10:55;;;;;;;;;;;;;;;;;;5033507;28;19981;-19
2022/04/11 15:13:21;;;;;;;;;;;;;;;;;;5033179;28;19928;-19
2022/04/11 15:15:50;;;;;;;;;;;;;;;;;;5033333;28;19913;-19
2022/04/11 15:18:16;;;;;;;;;;;;;;;;;;5033311;28;19932;-20
2022/04/11 15:20:42;;;;;;;;;;;;;;;;;;5033300;28;19919;-19
2022/04/11 15:23:08;;;;;;;;;;;;;;;;;;5033097;28;19912;-20
2022/04/11 15:25:34;;;;;;;;;;;;;;;;;;5015759;28;20054;-20
2022/04/11 15:28:00;;;;;;;;;;;;;;;;;;5033309;28;19955;-20
2022/04/11 15:30:26;;;;;;;;;;;;;;;;;;5032961;28;19914;-20
2022/04/11 15:32:52;;;;;;;;;;;;;;;;;;5033392;28;19909;-21
2022/04/11 15:35:18;;;;;;;;;;;;;;;;;;5018194;28;20233;-21
2022/04/11 15:37:44;;;;;;;;;;;;;;;;;;5019303;28;19979;-19
2022/04/11 15:40:13;;;;;;;;;;;;;;;;;;5037546;28;19909;-23
2022/04/11 15:42:39;;;;;;;;;;;;;;;;;;5037191;28;19960;-19
2022/04/11 15:45:06;;;;;;;;;;;;;;;;;;5037339;28;19909;-20
2022/04/11 15:47:32;;;;;;;;;;;;;;;;;;5020551;28;20275;-19
2022/04/11 15:49:58;;;;;;;;;;;;;;;;;;5037142;28;19920;-20
2022/04/11 15:52:24;;;;;;;;;;;;;;;;;;5037190;28;19921;-20
2022/04/11 15:54:51;;;;;;;;;;;;;;;;;;5037129;28;20248;-19
2022/04/11 15:57:17;;;;;;;;;;;;;;;;;;5036784;28;19924;-19
2022/04/11 15:59:45;;;;;;;;;;;;;;;;;;5037212;28;19932;-21
2022/04/11 16:02:12;;;;;;;;;;;;;;;;;;5019460;28;19917;-19
2022/04/11 16:04:38;;;;;;;;;;;;;;;;;;5036664;28;19929;-20
2022/04/11 16:07:05;;;;;;;;;;;;;;;;;;5037468;28;19924;-22
2022/04/11 16:09:31;;;;;;;;;;;;;;;;;;5036987;28;20284;-19
2022/04/11 16:11:58;;;;;;;;;;;;;;;;;;5037619;28;19967;-24
2022/04/11 16:14:25;;;;;;;;;;;;;;;;;;5037416;28;19914;-20
2022/04/11 16:16:51;;;;;;;;;;;;;;;;;;5036878;28;20276;-20
2022/04/11 16:19:19;;;;;;;;;;;;;;;;;;5019427;28;19923;-21
2022/04/11 16:21:45;;;;;;;;;;;;;;;;;;5036556;28;19917;-19
2022/04/11 16:24:12;;;;;;;;;;;;;;;;;;5036805;28;20356;-20
2022/04/11 16:26:38;;;;;;;;;;;;;;;;;;5019186;28;19913;-21
2022/04/11 16:29:04;;;;;;;;;;;;;;;;;;5036358;28;19909;-20
2022/04/11 16:31:31;;;;;;;;;;;;;;;;;;5036675;28;20015;-21
2022/04/11 16:33:57;;;;;;;;;;;;;;;;;;5037024;28;19913;-20
2022/04/11 16:36:23;;;;;;;;;;;;;;;;;;5018792;28;19917;-20
2022/04/11 16:38:49;;;;;;;;;;;;;;;;;;5018506;28;19961;-20
2022/04/11 16:41:18;;;;;;;;;;;;;;;;;;5036625;28;19913;-22
2022/04/11 16:43:45;;;;;;;;;;;;;;;;;;5018632;28;19913;-19
2022/04/11 16:46:13;;;;;;;;;;;;;;;;;;5035545;28;19975;-20
2022/04/11 16:48:39;;;;;;;;;;;;;;;;;;5036251;28;19916;-20
2022/04/11 16:51:05;;;;;;;;;;;;;;;;;;5036654;28;19921;-22
2022/04/11 16:53:31;;;;;;;;;;;;;;;;;;5018790;28;19928;-21
2022/04/11 16:55:57;;;;;;;;;;;;;;;;;;5035773;28;19956;-18
2022/04/11 16:58:24;;;;;;;;;;;;;;;;;;5036031;28;19917;-19
2022/04/11 17:00:50;;;;;;;;;;;;;;;;;;5035897;28;19959;-21
2022/04/11 17:03:17;;;;;;;;;;;;;;;;;;5035684;28;19920;-18
2022/04/11 17:05:43;;;;;;;;;;;;;;;;;;5018359;28;19913;-21
2022/04/11 17:08:09;;;;;;;;;;;;;;;;;;5036236;28;19913;-20